< < Back
Terminal Aerodrome Forecast


Current Version              Previous Versions:   1  2  3  4  5  6  7  8  9  

Terminal Aerodrome Forecast

275
FTUS44 KBMX 251900 CCA
TAFBHM
TAF COR
KBHM 251958Z 2520/2618 19015G24KT P6SM SKC
     FM252200 21014G20KT P6SM SCT045 SCT120
      TEMPO 2522/2523 -RA
     FM260200 28009KT 6SM -RA BR SCT025 OVC050
     FM260900 30010G16KT 6SM BR OVC025=



Latest METAR

370
SAUS70 KWBC 252000 RRB
MTRBHM
METAR KBHM 251953Z 19019G25KT 10SM FEW120 FEW250 16/01 A2975 RMK AO2
SLP073 T01560011


USA.gov is the U.S. government's official web portal to all federal, state and local government web resources and services.